createdAt,value
2023-02-26T00:00:12.258Z,99182.97
2023-02-26T00:01:17.517Z,99185.34
2023-02-26T00:01:58.104Z,99186.84
2023-02-26T00:02:32.136Z,99182.06
2023-02-26T00:03:05.752Z,99183.09
2023-02-26T00:03:47.037Z,99170.63
2023-02-26T00:04:21.088Z,99188.00
2023-02-26T00:05:01.043Z,99198.22
2023-02-26T00:05:41.099Z,99179.53
2023-02-26T00:06:22.074Z,99191.50
2023-02-26T00:07:02.089Z,99189.13
2023-02-26T00:07:42.029Z,99188.69
2023-02-26T00:08:22.093Z,99186.97
2023-02-26T00:09:03.030Z,99166.44
2023-02-26T00:09:44.095Z,99177.81
2023-02-26T00:10:25.049Z,99179.75
2023-02-26T00:11:06.089Z,99187.88
2023-02-26T00:11:46.036Z,99199.19
2023-02-26T00:12:27.113Z,99176.19
2023-02-26T00:13:08.012Z,99190.56
2023-02-26T00:13:51.099Z,99183.81
2023-02-26T00:14:33.030Z,99199.59
2023-02-26T00:15:15.057Z,99186.97
2023-02-26T00:15:57.284Z,99203.28
2023-02-26T00:16:41.090Z,99209.34
2023-02-26T00:17:30.012Z,99212.91
2023-02-26T00:18:18.480Z,99209.59
2023-02-26T00:19:00.006Z,99190.91
2023-02-26T00:19:40.069Z,99210.44
2023-02-26T00:20:20.023Z,99206.69
2023-02-26T00:21:08.036Z,99204.41
2023-02-26T00:21:42.023Z,99200.03
2023-02-26T00:22:30.019Z,99191.63
2023-02-26T00:23:04.070Z,99188.41
2023-02-26T00:23:51.019Z,99187.88
2023-02-26T00:24:24.727Z,99191.22
2023-02-26T00:25:11.999Z,99197.28
2023-02-26T00:25:47.197Z,99214.41
2023-02-26T00:26:28.338Z,99190.19
2023-02-26T00:27:03.132Z,99190.25
2023-02-26T00:27:37.098Z,99208.84
2023-02-26T00:28:18.012Z,99199.13
2023-02-26T00:28:53.162Z,99201.91
2023-02-26T00:29:27.055Z,99197.00
2023-02-26T00:30:08.046Z,99179.03
2023-02-26T00:30:43.161Z,99205.34
2023-02-26T00:31:18.738Z,99217.47
2023-02-26T00:32:00.118Z,99220.69
2023-02-26T00:32:34.078Z,99215.78
2023-02-26T00:33:08.447Z,99206.09
2023-02-26T00:33:49.028Z,99216.47
2023-02-26T00:34:23.094Z,99220.09
2023-02-26T00:34:57.411Z,99219.69
2023-02-26T00:35:38.003Z,99213.81
2023-02-26T00:36:45.084Z,99235.44
2023-02-26T00:37:45.009Z,99224.53
2023-02-26T00:38:25.063Z,99207.47
2023-02-26T00:39:45.009Z,99216.00
2023-02-26T00:40:36.661Z,99226.03
2023-02-26T00:41:18.025Z,99231.56
2023-02-26T00:41:59.069Z,99222.66
2023-02-26T00:42:40.001Z,99226.25
2023-02-26T00:43:29.001Z,99221.88
2023-02-26T00:44:03.054Z,99231.16
2023-02-26T00:44:37.215Z,99219.00
2023-02-26T00:45:19.002Z,99229.22
2023-02-26T00:46:04.117Z,99231.97
2023-02-26T00:46:54.628Z,99223.19
2023-02-26T00:47:58.000Z,99218.53
2023-02-26T00:49:05.010Z,99235.38
2023-02-26T00:50:05.471Z,99231.06
2023-02-26T00:51:05.967Z,99225.34
2023-02-26T00:51:56.961Z,99228.78
2023-02-26T00:53:13.010Z,99231.16
2023-02-26T00:54:13.011Z,99221.53
2023-02-26T00:54:53.050Z,99228.78
2023-02-26T00:55:33.009Z,99230.47
2023-02-26T00:56:13.035Z,99209.91
2023-02-26T00:56:52.983Z,99186.56
2023-02-26T00:57:34.020Z,99211.38
2023-02-26T00:58:13.959Z,99220.53
2023-02-26T00:58:54.081Z,99221.34
2023-02-26T00:59:35.022Z,99225.56
2023-02-26T01:00:17.039Z,99230.72
2023-02-26T01:00:56.993Z,99208.31
2023-02-26T01:01:38.186Z,99207.56
2023-02-26T01:02:17.982Z,99214.09
2023-02-26T01:02:59.025Z,99216.59
2023-02-26T01:03:40.014Z,99212.16
2023-02-26T01:04:23.072Z,99224.03
2023-02-26T01:05:03.987Z,99220.91
2023-02-26T01:05:45.020Z,99214.63
2023-02-26T01:06:27.976Z,99225.47
2023-02-26T01:07:08.032Z,99221.09
2023-02-26T01:08:11.956Z,99231.75
2023-02-26T01:09:07.208Z,99226.69
2023-02-26T01:09:54.948Z,99216.44
2023-02-26T01:10:36.979Z,99200.88
2023-02-26T01:11:30.950Z,99237.78
2023-02-26T01:12:26.981Z,99214.22
2023-02-26T01:13:23.993Z,99236.69
2023-02-26T01:14:18.972Z,99237.16
2023-02-26T01:15:13.960Z,99217.63
2023-02-26T01:16:08.988Z,99229.38
2023-02-26T01:17:15.051Z,99221.53
2023-02-26T01:18:22.941Z,99241.53
2023-02-26T01:19:16.049Z,99233.53
2023-02-26T01:20:16.983Z,99211.97
2023-02-26T01:20:56.116Z,99242.69
2023-02-26T01:21:42.958Z,99246.00
2023-02-26T01:22:31.062Z,99231.06
2023-02-26T01:23:15.971Z,99248.25
2023-02-26T01:23:59.010Z,99243.72
2023-02-26T01:24:41.928Z,99254.84
2023-02-26T01:25:32.008Z,99217.91
2023-02-26T01:26:33.966Z,99244.38
2023-02-26T01:27:13.999Z,99230.75
2023-02-26T01:27:48.070Z,99245.03
2023-02-26T01:28:35.980Z,99232.25
2023-02-26T01:29:09.991Z,99243.03
2023-02-26T01:29:56.930Z,99238.88
2023-02-26T01:30:31.987Z,99221.81
2023-02-26T01:31:53.103Z,99258.78
2023-02-26T01:32:49.985Z,99252.06
2023-02-26T01:33:39.004Z,99260.38
2023-02-26T01:34:55.315Z,99227.28
2023-02-26T01:35:59.932Z,99259.25
2023-02-26T01:36:39.983Z,99235.66
2023-02-26T01:37:43.675Z,99253.09
2023-02-26T01:38:42.955Z,99249.25
2023-02-26T01:39:33.987Z,99238.50
2023-02-26T01:40:20.033Z,99249.91
2023-02-26T01:41:21.933Z,99258.22
2023-02-26T01:42:29.025Z,99261.00
2023-02-26T01:43:17.514Z,99261.06
2023-02-26T01:44:06.925Z,99269.66
2023-02-26T01:44:49.999Z,99248.81
2023-02-26T01:45:36.052Z,99261.72
2023-02-26T01:46:49.963Z,99262.97
2023-02-26T01:47:33.974Z,99260.50
2023-02-26T01:48:17.058Z,99264.50
2023-02-26T01:49:03.920Z,99265.69
2023-02-26T01:49:45.928Z,99272.25
2023-02-26T01:50:25.680Z,99253.44
2023-02-26T01:51:12.918Z,99262.06
2023-02-26T01:51:55.089Z,99271.44
2023-02-26T01:53:00.937Z,99280.66
2023-02-26T01:53:34.634Z,99258.22
2023-02-26T01:54:21.989Z,99281.09
2023-02-26T01:55:01.954Z,99283.63
2023-02-26T01:55:41.969Z,99280.69
2023-02-26T01:56:25.192Z,99290.16
2023-02-26T01:57:09.978Z,99284.63
2023-02-26T01:57:50.917Z,99283.78
2023-02-26T01:58:33.979Z,99276.88
2023-02-26T01:59:17.916Z,99274.19
2023-02-26T01:59:59.973Z,99278.47
2023-02-26T02:00:39.933Z,99287.06
2023-02-26T02:01:19.976Z,99284.72
2023-02-26T02:02:03.907Z,99283.34
2023-02-26T02:02:44.036Z,99277.41
2023-02-26T02:03:25.077Z,99300.19
2023-02-26T02:04:04.950Z,99275.72
2023-02-26T02:04:45.917Z,99270.97
2023-02-26T02:06:13.926Z,99296.66
2023-02-26T02:06:48.160Z,99293.59
2023-02-26T02:07:34.908Z,99275.66
2023-02-26T02:08:09.186Z,99295.50
2023-02-26T02:08:55.911Z,99281.56
2023-02-26T02:09:29.673Z,99295.78
2023-02-26T02:10:17.898Z,99270.28
2023-02-26T02:10:52.104Z,99293.47
2023-02-26T02:11:38.925Z,99305.75
2023-02-26T02:12:45.902Z,99281.00
2023-02-26T02:14:07.906Z,99308.75
2023-02-26T02:15:31.887Z,99309.53
2023-02-26T02:17:09.917Z,99312.06
2023-02-26T02:18:55.891Z,99316.50
2023-02-26T02:20:29.888Z,99320.09
2023-02-26T02:21:54.938Z,99320.56
2023-02-26T02:23:15.942Z,99311.41
2023-02-26T02:24:08.991Z,99304.19
2023-02-26T02:25:10.885Z,99310.31
2023-02-26T02:26:08.962Z,99321.88
2023-02-26T02:27:11.880Z,99316.00
2023-02-26T02:28:14.189Z,99334.66
2023-02-26T02:29:31.959Z,99328.34
2023-02-26T02:30:36.263Z,99311.06
2023-02-26T02:31:33.100Z,99334.53
2023-02-26T02:32:37.023Z,99332.53
2023-02-26T02:33:23.859Z,99330.28
2023-02-26T02:34:45.883Z,99338.59
2023-02-26T02:36:17.856Z,99331.56
2023-02-26T02:37:39.883Z,99324.28
2023-02-26T02:38:39.873Z,99345.84
2023-02-26T02:39:38.910Z,99347.56
2023-02-26T02:40:46.878Z,99341.72
2023-02-26T02:41:36.916Z,99340.13
2023-02-26T02:42:22.852Z,99356.69
2023-02-26T02:43:19.965Z,99314.47
2023-02-26T02:44:00.889Z,99333.78
2023-02-26T02:44:45.927Z,99348.44
2023-02-26T02:46:13.884Z,99353.91
2023-02-26T02:46:56.010Z,99341.34
2023-02-26T02:47:38.854Z,99346.66
2023-02-26T02:48:33.928Z,99336.91
2023-02-26T02:49:24.839Z,99357.81
2023-02-26T02:50:20.946Z,99364.53
2023-02-26T02:51:31.870Z,99364.97
2023-02-26T02:52:44.941Z,99347.97
2023-02-26T02:53:30.857Z,99350.66
2023-02-26T02:54:19.895Z,99363.19
2023-02-26T02:55:09.849Z,99358.63
2023-02-26T02:55:57.904Z,99356.97
2023-02-26T02:56:45.867Z,99359.59
2023-02-26T02:58:07.921Z,99366.50
2023-02-26T02:58:57.859Z,99374.28
2023-02-26T02:59:49.213Z,99389.66
2023-02-26T03:00:30.845Z,99369.78
2023-02-26T03:01:15.934Z,99375.56
2023-02-26T03:03:43.866Z,99373.31
2023-02-26T03:04:20.923Z,99380.25
2023-02-26T03:05:07.846Z,99376.53
2023-02-26T03:05:41.899Z,99396.94
2023-02-26T03:06:28.835Z,99393.06
2023-02-26T03:07:02.886Z,99386.69
2023-02-26T03:08:13.824Z,99399.16
2023-02-26T03:08:55.840Z,99384.81
2023-02-26T03:09:49.859Z,99386.09
2023-02-26T03:10:44.857Z,99384.19
2023-02-26T03:11:38.831Z,99385.09
2023-02-26T03:12:32.839Z,99394.91
2023-02-26T03:13:36.833Z,99385.78
2023-02-26T03:14:17.840Z,99393.88
2023-02-26T03:14:57.888Z,99401.25
2023-02-26T03:16:09.858Z,99408.09
2023-02-26T03:17:13.886Z,99405.75
2023-02-26T03:18:05.820Z,99375.75
2023-02-26T03:19:27.847Z,99400.63
2023-02-26T03:20:32.924Z,99388.47
2023-02-26T03:21:40.803Z,99413.50
2023-02-26T03:22:35.967Z,99394.25
2023-02-26T03:23:42.820Z,99383.94
2023-02-26T03:24:58.835Z,99417.69
2023-02-26T03:26:11.831Z,99410.38
2023-02-26T03:27:36.840Z,99418.78
2023-02-26T03:28:56.846Z,99424.22
2023-02-26T03:29:50.824Z,99439.25
2023-02-26T03:30:46.900Z,99435.47
2023-02-26T03:31:36.086Z,99429.97
2023-02-26T03:32:24.938Z,99440.25
2023-02-26T03:33:36.891Z,99430.81
2023-02-26T03:34:44.791Z,99447.44
2023-02-26T03:35:41.927Z,99406.09
2023-02-26T03:36:30.824Z,99445.84
2023-02-26T03:37:24.944Z,99447.47
2023-02-26T03:38:10.809Z,99414.78
2023-02-26T03:39:06.850Z,99436.03
2023-02-26T03:39:51.793Z,99438.13
2023-02-26T03:40:43.852Z,99447.81
2023-02-26T03:41:37.809Z,99440.25
2023-02-26T03:42:25.872Z,99455.09
2023-02-26T03:43:42.833Z,99446.53
2023-02-26T03:44:37.882Z,99441.16
2023-02-26T03:45:31.800Z,99450.88
2023-02-26T03:46:15.890Z,99449.19
2023-02-26T03:47:01.823Z,99446.13
2023-02-26T03:47:42.915Z,99438.31
2023-02-26T03:48:27.790Z,99437.38
2023-02-26T03:49:15.960Z,99446.69
2023-02-26T03:50:08.814Z,99443.63
2023-02-26T03:50:56.866Z,99454.84
2023-02-26T03:51:37.796Z,99465.41
2023-02-26T03:52:18.799Z,99432.06
2023-02-26T03:52:55.860Z,99458.78
2023-02-26T03:54:06.766Z,99446.88
2023-02-26T03:54:53.508Z,99455.66
2023-02-26T03:55:59.815Z,99440.81
2023-02-26T03:56:43.895Z,99449.00
2023-02-26T03:57:30.804Z,99458.88
2023-02-26T03:58:04.915Z,99461.56
2023-02-26T03:58:52.787Z,99466.03
2023-02-26T03:59:26.853Z,99457.09
2023-02-26T04:00:16.810Z,99465.63
2023-02-26T04:00:55.562Z,99464.03
2023-02-26T04:02:08.799Z,99448.34
2023-02-26T04:03:13.818Z,99453.44
2023-02-26T04:04:17.832Z,99441.41
2023-02-26T04:05:22.784Z,99474.69
2023-02-26T04:06:17.778Z,99471.88
2023-02-26T04:07:11.787Z,99476.34
2023-02-26T04:08:05.776Z,99455.19
2023-02-26T04:08:46.805Z,99455.25
2023-02-26T04:09:27.857Z,99475.41
2023-02-26T04:10:08.831Z,99444.66
2023-02-26T04:11:06.325Z,99476.28
2023-02-26T04:11:46.764Z,99455.09
2023-02-26T04:12:41.768Z,99473.84
2023-02-26T04:13:35.760Z,99485.03
2023-02-26T04:14:16.824Z,99469.00
2023-02-26T04:14:56.855Z,99460.63
2023-02-26T04:15:36.791Z,99483.25
2023-02-26T04:16:17.101Z,99467.56
2023-02-26T04:16:56.826Z,99467.94
2023-02-26T04:17:36.823Z,99481.53
2023-02-26T04:18:17.752Z,99493.63
2023-02-26T04:18:58.013Z,99473.56
2023-02-26T04:19:38.780Z,99497.91
2023-02-26T04:20:18.808Z,99489.75
2023-02-26T04:20:58.751Z,99499.78
2023-02-26T04:21:38.835Z,99471.06
2023-02-26T04:22:19.788Z,99475.94
2023-02-26T04:22:59.831Z,99494.97
2023-02-26T04:23:40.758Z,99497.44
2023-02-26T04:24:20.825Z,99495.03
2023-02-26T04:25:00.776Z,99490.28
2023-02-26T04:25:40.929Z,99494.19
2023-02-26T04:26:21.754Z,99490.84
2023-02-26T04:27:01.817Z,99493.91
2023-02-26T04:27:41.773Z,99498.28
2023-02-26T04:28:21.904Z,99489.91
2023-02-26T04:29:01.752Z,99504.88
2023-02-26T04:29:41.849Z,99509.28
2023-02-26T04:30:22.809Z,99497.50
2023-02-26T04:31:02.922Z,99506.63
2023-02-26T04:31:42.906Z,99509.50
2023-02-26T04:32:22.804Z,99495.59
2023-02-26T04:33:02.738Z,99499.78
2023-02-26T04:33:42.817Z,99497.13
2023-02-26T04:34:23.759Z,99487.06
2023-02-26T04:35:03.815Z,99508.38
2023-02-26T04:35:43.798Z,99498.16
2023-02-26T04:36:24.319Z,99516.94
2023-02-26T04:37:04.772Z,99510.75
2023-02-26T04:37:44.797Z,99509.50
2023-02-26T04:38:25.757Z,99507.59
2023-02-26T04:39:05.855Z,99511.59
2023-02-26T04:39:45.729Z,99520.69
2023-02-26T04:40:26.110Z,99507.59
2023-02-26T04:41:05.780Z,99525.50
2023-02-26T04:41:45.811Z,99510.56
2023-02-26T04:42:26.734Z,99535.38
2023-02-26T04:43:06.834Z,99510.66
2023-02-26T04:43:47.729Z,99534.97
2023-02-26T04:44:27.812Z,99525.84
2023-02-26T04:45:07.727Z,99532.31
2023-02-26T04:45:47.814Z,99518.25
2023-02-26T04:46:29.125Z,99530.22
2023-02-26T04:47:09.874Z,99522.03
2023-02-26T04:47:50.721Z,99522.03
2023-02-26T04:48:30.814Z,99525.06
2023-02-26T04:49:11.736Z,99539.53
2023-02-26T04:49:51.773Z,99517.69
2023-02-26T04:50:32.734Z,99507.69
2023-02-26T04:51:12.788Z,99535.44
2023-02-26T04:51:52.793Z,99523.94
2023-02-26T04:52:32.917Z,99520.34
2023-02-26T04:53:13.708Z,99532.97
2023-02-26T04:54:07.729Z,99516.91
2023-02-26T04:55:01.718Z,99527.16
2023-02-26T04:55:55.725Z,99547.84
2023-02-26T04:56:49.725Z,99532.09
2023-02-26T04:57:29.733Z,99535.25
2023-02-26T04:58:09.804Z,99556.66
2023-02-26T04:58:50.701Z,99550.38
2023-02-26T04:59:30.808Z,99546.84
2023-02-26T05:00:14.727Z,99553.88
2023-02-26T05:00:56.780Z,99541.81
2023-02-26T05:01:36.732Z,99530.22
2023-02-26T05:02:16.789Z,99552.06
2023-02-26T05:02:57.723Z,99549.63
2023-02-26T05:03:37.775Z,99536.41
2023-02-26T05:04:17.727Z,99522.63
2023-02-26T05:04:57.756Z,99551.94
2023-02-26T05:05:38.697Z,99531.56
2023-02-26T05:06:18.765Z,99523.19
2023-02-26T05:06:59.712Z,99536.03
2023-02-26T05:07:39.780Z,99551.81
2023-02-26T05:08:20.727Z,99557.91
2023-02-26T05:09:00.814Z,99531.97
2023-02-26T05:09:40.707Z,99547.75
2023-02-26T05:10:20.776Z,99545.19
2023-02-26T05:11:01.696Z,99542.03
2023-02-26T05:11:42.018Z,99539.00
2023-02-26T05:12:22.700Z,99544.13
2023-02-26T05:13:02.768Z,99560.03
2023-02-26T05:13:42.721Z,99553.44
2023-02-26T05:14:23.799Z,99562.59
2023-02-26T05:15:04.861Z,99552.50
2023-02-26T05:15:44.863Z,99548.91
2023-02-26T05:16:25.021Z,99559.94
2023-02-26T05:17:05.762Z,99539.94
2023-02-26T05:17:46.705Z,99567.72
2023-02-26T05:18:26.743Z,99550.41
2023-02-26T05:19:07.695Z,99563.25
2023-02-26T05:19:47.762Z,99556.50
2023-02-26T05:20:28.695Z,99568.78
2023-02-26T05:21:08.783Z,99577.06
2023-02-26T05:21:48.699Z,99541.38
2023-02-26T05:22:29.177Z,99544.16
2023-02-26T05:23:09.695Z,99573.94
2023-02-26T05:23:49.779Z,99571.06
2023-02-26T05:24:29.706Z,99573.31
2023-02-26T05:25:12.227Z,99577.41
2023-02-26T05:25:53.666Z,99541.56
2023-02-26T05:26:33.771Z,99554.03
2023-02-26T05:27:14.708Z,99555.09
2023-02-26T05:27:55.790Z,99557.38
2023-02-26T05:28:35.690Z,99560.88
2023-02-26T05:29:15.783Z,99548.59
2023-02-26T05:29:55.692Z,99578.59
2023-02-26T05:30:35.787Z,99564.50
2023-02-26T05:31:16.732Z,99555.72
2023-02-26T05:31:57.171Z,99562.97
2023-02-26T05:32:37.680Z,99567.63
2023-02-26T05:33:17.754Z,99571.72
2023-02-26T05:33:57.693Z,99571.34
2023-02-26T05:34:37.748Z,99588.81
2023-02-26T05:35:18.699Z,99557.44
2023-02-26T05:35:58.759Z,99585.81
2023-02-26T05:36:38.692Z,99591.34
2023-02-26T05:37:18.728Z,99566.19
2023-02-26T05:37:58.667Z,99577.63
2023-02-26T05:38:39.763Z,99583.91
2023-02-26T05:39:20.698Z,99591.59
2023-02-26T05:40:00.747Z,99585.44
2023-02-26T05:40:40.733Z,99605.41
2023-02-26T05:41:20.732Z,99585.03
2023-02-26T05:42:01.678Z,99608.84
2023-02-26T05:42:41.804Z,99578.59
2023-02-26T05:43:22.657Z,99586.56
2023-02-26T05:44:02.756Z,99612.06
2023-02-26T05:44:42.673Z,99599.28
2023-02-26T05:45:22.741Z,99594.91
2023-02-26T05:46:02.708Z,99602.59
2023-02-26T05:46:42.766Z,99593.13
2023-02-26T05:47:23.675Z,99613.19
2023-02-26T05:48:03.738Z,99617.97
2023-02-26T05:48:45.788Z,99586.09
2023-02-26T05:49:25.812Z,99606.75
2023-02-26T05:50:05.654Z,99602.53
2023-02-26T05:50:45.718Z,99601.22
2023-02-26T05:51:26.684Z,99605.31
2023-02-26T05:52:06.716Z,99617.31
2023-02-26T05:52:46.686Z,99624.44
2023-02-26T05:53:27.754Z,99621.03
2023-02-26T05:54:07.673Z,99612.63
2023-02-26T05:54:47.714Z,99609.19
2023-02-26T05:55:28.898Z,99613.41
2023-02-26T05:56:08.713Z,99616.28
2023-02-26T05:56:48.676Z,99618.44
2023-02-26T05:57:29.852Z,99616.91
2023-02-26T05:58:09.638Z,99637.41
2023-02-26T05:59:03.919Z,99626.81
2023-02-26T05:59:57.652Z,99636.44
2023-02-26T06:00:51.667Z,99614.66
2023-02-26T06:01:45.699Z,99611.69
2023-02-26T06:02:26.707Z,99621.63
2023-02-26T06:03:06.801Z,99632.28
2023-02-26T06:03:50.628Z,99616.84
2023-02-26T06:04:30.708Z,99620.47
2023-02-26T06:05:11.639Z,99641.56
2023-02-26T06:05:51.772Z,99637.78
2023-02-26T06:06:33.667Z,99630.53
2023-02-26T06:07:13.712Z,99623.88
2023-02-26T06:07:54.667Z,99633.59
2023-02-26T06:08:34.754Z,99646.75
2023-02-26T06:09:15.636Z,99616.09
2023-02-26T06:09:55.696Z,99632.44
2023-02-26T06:10:35.630Z,99621.50
2023-02-26T06:11:15.708Z,99631.41
2023-02-26T06:11:56.642Z,99630.91
2023-02-26T06:12:36.757Z,99636.25
2023-02-26T06:13:16.673Z,99637.41
2023-02-26T06:13:57.709Z,99643.75
2023-02-26T06:14:37.637Z,99624.25
2023-02-26T06:15:17.697Z,99636.06
2023-02-26T06:15:58.688Z,99635.09
2023-02-26T06:16:38.708Z,99641.53
2023-02-26T06:17:18.645Z,99653.56
2023-02-26T06:17:58.682Z,99670.69
2023-02-26T06:18:40.671Z,99652.19
2023-02-26T06:19:21.634Z,99671.69
2023-02-26T06:20:02.628Z,99673.28
2023-02-26T06:20:42.733Z,99651.88
2023-02-26T06:21:24.628Z,99678.50
2023-02-26T06:22:04.713Z,99674.13
2023-02-26T06:22:45.610Z,99667.84
2023-02-26T06:23:25.687Z,99695.56
2023-02-26T06:24:06.627Z,99690.72
2023-02-26T06:24:46.690Z,99671.16
2023-02-26T06:25:26.643Z,99697.75
2023-02-26T06:26:06.686Z,99685.84
2023-02-26T06:26:46.620Z,99682.03
2023-02-26T06:27:26.698Z,99671.28
2023-02-26T06:28:07.615Z,99677.72
2023-02-26T06:28:47.683Z,99685.19
2023-02-26T06:29:27.638Z,99684.22
2023-02-26T06:30:07.713Z,99670.78
2023-02-26T06:30:47.743Z,99678.72
2023-02-26T06:31:27.772Z,99700.25
2023-02-26T06:32:07.850Z,99666.50
2023-02-26T06:32:48.778Z,99679.63
2023-02-26T06:33:29.617Z,99674.31
2023-02-26T06:34:09.697Z,99689.56
2023-02-26T06:34:49.649Z,99696.03
2023-02-26T06:35:30.065Z,99688.16
2023-02-26T06:36:10.612Z,99676.22
2023-02-26T06:36:51.674Z,99692.38
2023-02-26T06:37:31.590Z,99674.63
2023-02-26T06:38:11.691Z,99702.22
2023-02-26T06:38:51.613Z,99694.50
2023-02-26T06:39:31.730Z,99679.25
2023-02-26T06:40:12.623Z,99703.03
2023-02-26T06:40:54.763Z,99704.31
2023-02-26T06:41:34.619Z,99678.84
2023-02-26T06:42:14.692Z,99701.22
2023-02-26T06:42:54.596Z,99677.25
2023-02-26T06:43:34.685Z,99687.84
2023-02-26T06:44:16.592Z,99698.41
2023-02-26T06:44:57.162Z,99705.75
2023-02-26T06:45:38.705Z,99710.13
2023-02-26T06:46:18.783Z,99685.38
2023-02-26T06:46:58.604Z,99712.88
2023-02-26T06:47:38.770Z,99704.25
2023-02-26T06:48:19.597Z,99699.84
2023-02-26T06:49:00.422Z,99714.91
2023-02-26T06:49:40.588Z,99723.25
2023-02-26T06:50:20.641Z,99720.94
2023-02-26T06:51:01.633Z,99713.53
2023-02-26T06:51:42.688Z,99703.94
2023-02-26T06:52:22.604Z,99691.09
2023-02-26T06:53:02.684Z,99714.13
2023-02-26T06:53:42.609Z,99713.16
2023-02-26T06:54:22.670Z,99707.25
2023-02-26T06:55:02.599Z,99704.56
2023-02-26T06:55:42.684Z,99726.19
2023-02-26T06:56:24.229Z,99725.00
2023-02-26T06:57:04.644Z,99728.06
2023-02-26T06:57:44.595Z,99725.88
2023-02-26T06:58:25.655Z,99741.56
2023-02-26T06:59:05.597Z,99713.38
2023-02-26T06:59:45.688Z,99712.81
2023-02-26T07:00:26.604Z,99730.25
2023-02-26T07:01:06.683Z,99676.44
2023-02-26T07:01:46.604Z,99734.91
2023-02-26T07:02:28.723Z,99743.75
2023-02-26T07:03:09.568Z,99724.03
2023-02-26T07:03:49.630Z,99743.09
2023-02-26T07:04:30.604Z,99718.13
2023-02-26T07:05:10.656Z,99749.56
2023-02-26T07:05:52.582Z,99723.06
2023-02-26T07:06:33.668Z,99745.72
2023-02-26T07:07:13.587Z,99724.28
2023-02-26T07:07:53.647Z,99721.72
2023-02-26T07:08:33.573Z,99732.81
2023-02-26T07:09:13.694Z,99738.53
2023-02-26T07:09:53.555Z,99746.34
2023-02-26T07:10:33.664Z,99749.38
2023-02-26T07:11:15.587Z,99737.50
2023-02-26T07:11:55.671Z,99756.91
2023-02-26T07:12:35.608Z,99767.06
2023-02-26T07:13:15.634Z,99741.34
2023-02-26T07:13:55.600Z,99733.16
2023-02-26T07:14:35.651Z,99740.59
2023-02-26T07:15:16.556Z,99772.06
2023-02-26T07:15:56.638Z,99761.72
2023-02-26T07:16:36.602Z,99752.59
2023-02-26T07:17:20.767Z,99746.31
2023-02-26T07:18:00.623Z,99756.16
2023-02-26T07:18:44.637Z,99771.47
2023-02-26T07:19:24.565Z,99763.75
2023-02-26T07:20:10.087Z,99756.03
2023-02-26T07:20:51.554Z,99749.72
2023-02-26T07:21:31.688Z,99730.84
2023-02-26T07:22:11.558Z,99770.91
2023-02-26T07:22:51.710Z,99735.38
2023-02-26T07:23:31.613Z,99754.91
2023-02-26T07:24:12.638Z,99762.34
2023-02-26T07:24:52.575Z,99761.22
2023-02-26T07:25:32.621Z,99768.25
2023-02-26T07:26:12.568Z,99743.09
2023-02-26T07:26:52.618Z,99752.81
2023-02-26T07:27:32.571Z,99754.34
2023-02-26T07:28:12.623Z,99743.00
2023-02-26T07:28:52.561Z,99736.81
2023-02-26T07:29:32.619Z,99772.09
2023-02-26T07:30:14.576Z,99750.34
2023-02-26T07:30:54.732Z,99781.13
2023-02-26T07:31:34.628Z,99759.88
2023-02-26T07:32:14.685Z,99783.34
2023-02-26T07:32:54.568Z,99767.50
2023-02-26T07:33:35.074Z,99764.25
2023-02-26T07:34:14.554Z,99783.13
2023-02-26T07:34:54.600Z,99805.22
2023-02-26T07:35:34.571Z,99790.44
2023-02-26T07:36:14.598Z,99781.38
2023-02-26T07:36:54.558Z,99803.59
2023-02-26T07:37:34.617Z,99782.63
2023-02-26T07:38:14.551Z,99788.00
2023-02-26T07:38:54.608Z,99792.38
2023-02-26T07:39:34.565Z,99796.09
2023-02-26T07:40:15.604Z,99774.91
2023-02-26T07:40:55.525Z,99786.88
2023-02-26T07:41:35.617Z,99789.00
2023-02-26T07:42:15.527Z,99781.22
2023-02-26T07:42:55.682Z,99788.44
2023-02-26T07:43:35.614Z,99800.28
2023-02-26T07:44:15.605Z,99797.75
2023-02-26T07:44:55.567Z,99797.22
2023-02-26T07:45:35.624Z,99800.22
2023-02-26T07:46:15.574Z,99802.50
2023-02-26T07:46:55.641Z,99811.47
2023-02-26T07:47:36.557Z,99790.13
2023-02-26T07:48:17.674Z,99787.47
2023-02-26T07:48:58.537Z,99810.34
2023-02-26T07:49:38.598Z,99813.50
2023-02-26T07:50:18.597Z,99811.41
2023-02-26T07:50:59.623Z,99800.91
2023-02-26T07:51:39.558Z,99817.41
2023-02-26T07:52:19.603Z,99806.84
2023-02-26T07:53:00.545Z,99802.72
2023-02-26T07:53:41.601Z,99809.91
2023-02-26T07:54:22.528Z,99809.81
2023-02-26T07:55:02.599Z,99813.50
2023-02-26T07:55:43.524Z,99799.84
2023-02-26T07:56:23.770Z,99817.41
2023-02-26T07:57:03.530Z,99809.22
2023-02-26T07:57:43.574Z,99840.00
2023-02-26T07:58:24.512Z,99814.34
2023-02-26T07:59:04.647Z,99808.69
2023-02-26T07:59:44.514Z,99816.59
2023-02-26T08:00:25.577Z,99828.63
2023-02-26T08:01:05.559Z,99809.56
2023-02-26T08:01:46.604Z,99816.38
2023-02-26T08:02:26.528Z,99828.16
2023-02-26T08:03:06.609Z,99814.44
2023-02-26T08:03:46.525Z,99818.56
2023-02-26T08:04:26.733Z,99838.94
2023-02-26T08:05:06.519Z,99835.03
2023-02-26T08:05:46.568Z,99817.78
2023-02-26T08:06:26.874Z,99845.91
2023-02-26T08:07:07.613Z,99828.75
2023-02-26T08:07:47.499Z,99838.03
2023-02-26T08:08:27.553Z,99829.97
2023-02-26T08:09:09.507Z,99831.09
2023-02-26T08:09:49.568Z,99859.69
2023-02-26T08:10:30.520Z,99849.63
2023-02-26T08:11:10.593Z,99835.91
2023-02-26T08:11:50.520Z,99856.88
2023-02-26T08:12:30.579Z,99857.19
2023-02-26T08:13:10.497Z,99848.91
2023-02-26T08:13:50.559Z,99862.84
2023-02-26T08:14:30.502Z,99873.00
2023-02-26T08:15:15.258Z,99866.91
2023-02-26T08:15:55.569Z,99866.63
2023-02-26T08:16:35.580Z,99857.97
2023-02-26T08:17:17.533Z,99864.28
2023-02-26T08:17:59.633Z,99859.47
2023-02-26T08:18:39.501Z,99859.31
2023-02-26T08:19:19.566Z,99858.72
2023-02-26T08:20:00.495Z,99863.84
2023-02-26T08:20:40.563Z,99844.22
2023-02-26T08:21:20.479Z,99866.13
2023-02-26T08:22:00.575Z,99878.94
2023-02-26T08:22:41.513Z,99858.56
2023-02-26T08:23:21.555Z,99869.63
2023-02-26T08:24:02.523Z,99878.84
2023-02-26T08:24:42.539Z,99862.34
2023-02-26T08:25:23.492Z,99871.94
2023-02-26T08:26:21.622Z,99871.53
2023-02-26T08:27:02.466Z,99863.53
2023-02-26T08:27:49.513Z,99869.28
2023-02-26T08:28:44.488Z,99877.75
2023-02-26T08:29:38.488Z,99891.47
2023-02-26T08:30:32.488Z,99869.06
2023-02-26T08:31:27.556Z,99883.13
2023-02-26T08:32:23.605Z,99888.81
2023-02-26T08:33:10.491Z,99868.44
2023-02-26T08:33:44.551Z,99891.94
2023-02-26T08:34:31.466Z,99881.03
2023-02-26T08:35:05.555Z,99900.72
2023-02-26T08:35:53.489Z,99891.13
2023-02-26T08:36:27.810Z,99891.38
2023-02-26T08:37:17.475Z,99892.91
2023-02-26T08:37:52.745Z,99889.34
2023-02-26T08:38:36.508Z,99894.25
2023-02-26T08:39:16.511Z,99897.69
2023-02-26T08:39:58.473Z,99878.50
2023-02-26T08:40:38.534Z,99888.53
2023-02-26T08:41:19.467Z,99877.56
2023-02-26T08:42:01.694Z,99913.59
2023-02-26T08:42:42.480Z,99909.56
2023-02-26T08:43:22.566Z,99900.06
2023-02-26T08:44:03.491Z,99882.91
2023-02-26T08:44:43.562Z,99908.66
2023-02-26T08:45:23.477Z,99883.31
2023-02-26T08:46:04.534Z,99910.22
2023-02-26T08:46:45.524Z,99913.59
2023-02-26T08:47:29.090Z,99917.63
2023-02-26T08:48:10.915Z,99914.56
2023-02-26T08:48:51.556Z,99898.47
2023-02-26T08:49:31.543Z,99915.09
2023-02-26T08:50:12.541Z,99898.91
2023-02-26T08:50:53.466Z,99917.53